sensor_id;sensor_type;location;lat;lon;timestamp;temperature;humidity
17381;DHT22;8808;52.478;13.378;2022-12-10T00:01:46;0.00;99.90
17381;DHT22;8808;52.478;13.378;2022-12-10T00:04:14;-0.10;99.90
17381;DHT22;8808;52.478;13.378;2022-12-10T00:06:41;0.00;99.90
17381;DHT22;8808;52.478;13.378;2022-12-10T00:09:11;0.00;99.90
17381;DHT22;8808;52.478;13.378;2022-12-10T00:11:38;0.00;99.90
17381;DHT22;8808;52.478;13.378;2022-12-10T00:14:06;0.00;99.90
17381;DHT22;8808;52.478;13.378;2022-12-10T00:16:33;-0.20;99.90
17381;DHT22;8808;52.478;13.378;2022-12-10T00:19:03;0.00;99.90
17381;DHT22;8808;52.478;13.378;2022-12-10T00:21:32;0.00;99.90
17381;DHT22;8808;52.478;13.378;2022-12-10T00:24:00;-0.10;99.90
17381;DHT22;8808;52.478;13.378;2022-12-10T00:26:29;-0.20;99.90
17381;DHT22;8808;52.478;13.378;2022-12-10T00:28:57;-0.10;99.90
17381;DHT22;8808;52.478;13.378;2022-12-10T00:31:25;-0.20;99.90
17381;DHT22;8808;52.478;13.378;2022-12-10T00:33:54;-0.20;99.90
17381;DHT22;8808;52.478;13.378;2022-12-10T00:36:24;-0.30;99.90
17381;DHT22;8808;52.478;13.378;2022-12-10T00:38:51;-0.20;99.90
17381;DHT22;8808;52.478;13.378;2022-12-10T00:41:18;-0.10;99.90
17381;DHT22;8808;52.478;13.378;2022-12-10T00:43:46;-0.20;99.90
17381;DHT22;8808;52.478;13.378;2022-12-10T00:46:15;-0.20;99.90
17381;DHT22;8808;52.478;13.378;2022-12-10T00:48:43;-0.30;99.90
17381;DHT22;8808;52.478;13.378;2022-12-10T00:51:12;-0.20;99.90
17381;DHT22;8808;52.478;13.378;2022-12-10T00:53:43;-0.30;99.90
17381;DHT22;8808;52.478;13.378;2022-12-10T00:56:11;-0.30;99.90
17381;DHT22;8808;52.478;13.378;2022-12-10T00:58:39;-0.40;99.90
17381;DHT22;8808;52.478;13.378;2022-12-10T01:01:09;-0.30;99.90
17381;DHT22;8808;52.478;13.378;2022-12-10T01:03:37;-0.20;99.90
17381;DHT22;8808;52.478;13.378;2022-12-10T01:06:09;-0.30;99.90
17381;DHT22;8808;52.478;13.378;2022-12-10T01:08:37;-0.30;99.90
17381;DHT22;8808;52.478;13.378;2022-12-10T01:11:05;-0.20;99.90
17381;DHT22;8808;52.478;13.378;2022-12-10T01:13:33;-0.20;99.90
17381;DHT22;8808;52.478;13.378;2022-12-10T01:16:01;-0.30;99.90
17381;DHT22;8808;52.478;13.378;2022-12-10T01:18:28;-0.20;99.90
17381;DHT22;8808;52.478;13.378;2022-12-10T01:20:55;-0.30;99.90
17381;DHT22;8808;52.478;13.378;2022-12-10T01:23:22;-0.30;99.90
17381;DHT22;8808;52.478;13.378;2022-12-10T01:25:48;-0.20;99.90
17381;DHT22;8808;52.478;13.378;2022-12-10T01:28:17;-0.30;99.90
17381;DHT22;8808;52.478;13.378;2022-12-10T01:30:44;-0.20;99.90
17381;DHT22;8808;52.478;13.378;2022-12-10T01:33:11;-0.40;99.90
17381;DHT22;8808;52.478;13.378;2022-12-10T01:35:38;-0.20;99.90
17381;DHT22;8808;52.478;13.378;2022-12-10T01:38:04;-0.20;99.90
17381;DHT22;8808;52.478;13.378;2022-12-10T01:40:37;-0.10;99.90
17381;DHT22;8808;52.478;13.378;2022-12-10T01:43:04;-0.20;99.90
17381;DHT22;8808;52.478;13.378;2022-12-10T01:45:32;-0.20;99.90
17381;DHT22;8808;52.478;13.378;2022-12-10T01:47:59;-0.30;99.90
17381;DHT22;8808;52.478;13.378;2022-12-10T01:50:26;-0.30;99.90
17381;DHT22;8808;52.478;13.378;2022-12-10T01:52:53;-0.30;99.90
17381;DHT22;8808;52.478;13.378;2022-12-10T01:55:43;-0.20;99.90
17381;DHT22;8808;52.478;13.378;2022-12-10T01:58:11;-0.30;99.90
17381;DHT22;8808;52.478;13.378;2022-12-10T02:03:13;-0.40;99.90
17381;DHT22;8808;52.478;13.378;2022-12-10T02:05:43;-0.20;99.90
17381;DHT22;8808;52.478;13.378;2022-12-10T02:08:16;-0.30;99.90
17381;DHT22;8808;52.478;13.378;2022-12-10T02:10:53;-0.30;99.90
17381;DHT22;8808;52.478;13.378;2022-12-10T02:13:27;-0.40;99.90
17381;DHT22;8808;52.478;13.378;2022-12-10T02:16:00;-0.40;99.90
17381;DHT22;8808;52.478;13.378;2022-12-10T02:18:35;-0.40;99.90
17381;DHT22;8808;52.478;13.378;2022-12-10T02:21:06;-0.50;99.90
17381;DHT22;8808;52.478;13.378;2022-12-10T02:23:37;-0.60;99.90
17381;DHT22;8808;52.478;13.378;2022-12-10T02:26:12;-0.50;99.90
17381;DHT22;8808;52.478;13.378;2022-12-10T02:28:45;-0.40;99.90
17381;DHT22;8808;52.478;13.378;2022-12-10T02:31:21;-0.50;99.90
17381;DHT22;8808;52.478;13.378;2022-12-10T02:33:51;-0.70;99.90
17381;DHT22;8808;52.478;13.378;2022-12-10T02:36:22;-0.80;99.90
17381;DHT22;8808;52.478;13.378;2022-12-10T02:38:51;-0.70;99.90
17381;DHT22;8808;52.478;13.378;2022-12-10T02:41:32;-0.70;99.90
17381;DHT22;8808;52.478;13.378;2022-12-10T02:44:02;-0.70;99.90
17381;DHT22;8808;52.478;13.378;2022-12-10T02:46:33;-0.90;99.90
17381;DHT22;8808;52.478;13.378;2022-12-10T02:49:03;-0.80;99.90
17381;DHT22;8808;52.478;13.378;2022-12-10T02:51:31;-0.80;99.90
17381;DHT22;8808;52.478;13.378;2022-12-10T02:53:59;-0.70;99.90
17381;DHT22;8808;52.478;13.378;2022-12-10T02:56:30;-0.80;99.90
17381;DHT22;8808;52.478;13.378;2022-12-10T02:59:08;-0.90;99.90
17381;DHT22;8808;52.478;13.378;2022-12-10T03:01:44;-1.00;99.90
17381;DHT22;8808;52.478;13.378;2022-12-10T03:04:19;-0.80;99.90
17381;DHT22;8808;52.478;13.378;2022-12-10T03:06:52;-0.80;99.90
17381;DHT22;8808;52.478;13.378;2022-12-10T03:09:22;-0.90;99.90
17381;DHT22;8808;52.478;13.378;2022-12-10T03:11:54;-0.90;99.90
17381;DHT22;8808;52.478;13.378;2022-12-10T03:14:27;-0.90;99.90
17381;DHT22;8808;52.478;13.378;2022-12-10T03:16:58;-0.90;99.90
17381;DHT22;8808;52.478;13.378;2022-12-10T03:19:30;-1.00;99.90
17381;DHT22;8808;52.478;13.378;2022-12-10T03:21:58;-1.00;99.90
17381;DHT22;8808;52.478;13.378;2022-12-10T03:24:27;-0.90;99.90
17381;DHT22;8808;52.478;13.378;2022-12-10T03:26:55;-0.90;99.90
17381;DHT22;8808;52.478;13.378;2022-12-10T03:29:27;-0.90;99.90
17381;DHT22;8808;52.478;13.378;2022-12-10T03:31:56;-0.80;99.90
17381;DHT22;8808;52.478;13.378;2022-12-10T03:34:25;-0.60;99.90
17381;DHT22;8808;52.478;13.378;2022-12-10T03:36:52;-0.70;99.90
17381;DHT22;8808;52.478;13.378;2022-12-10T03:39:20;-0.60;99.90
17381;DHT22;8808;52.478;13.378;2022-12-10T03:41:47;-0.70;99.90
17381;DHT22;8808;52.478;13.378;2022-12-10T03:44:27;-0.70;99.90
17381;DHT22;8808;52.478;13.378;2022-12-10T03:46:54;-0.70;99.90
17381;DHT22;8808;52.478;13.378;2022-12-10T03:49:23;-0.80;99.90
17381;DHT22;8808;52.478;13.378;2022-12-10T03:51:50;-0.80;99.90
17381;DHT22;8808;52.478;13.378;2022-12-10T03:54:16;-0.70;99.90
17381;DHT22;8808;52.478;13.378;2022-12-10T03:56:43;-0.60;99.90
17381;DHT22;8808;52.478;13.378;2022-12-10T03:59:11;-0.60;99.90
17381;DHT22;8808;52.478;13.378;2022-12-10T04:01:38;-0.60;99.90
17381;DHT22;8808;52.478;13.378;2022-12-10T04:04:05;-0.80;99.90
17381;DHT22;8808;52.478;13.378;2022-12-10T04:06:33;-0.60;99.90
17381;DHT22;8808;52.478;13.378;2022-12-10T04:09:00;-0.50;99.90
17381;DHT22;8808;52.478;13.378;2022-12-10T04:11:27;-0.50;99.90
17381;DHT22;8808;52.478;13.378;2022-12-10T04:13:54;-0.70;99.90
17381;DHT22;8808;52.478;13.378;2022-12-10T04:16:40;-0.70;99.90
17381;DHT22;8808;52.478;13.378;2022-12-10T04:19:09;-0.80;99.90
17381;DHT22;8808;52.478;13.378;2022-12-10T04:21:38;-0.60;99.90
17381;DHT22;8808;52.478;13.378;2022-12-10T04:24:24;-0.60;99.90
17381;DHT22;8808;52.478;13.378;2022-12-10T04:27:11;-0.70;99.90
17381;DHT22;8808;52.478;13.378;2022-12-10T04:29:39;-0.70;99.90
17381;DHT22;8808;52.478;13.378;2022-12-10T04:32:06;-0.70;99.90
17381;DHT22;8808;52.478;13.378;2022-12-10T04:34:33;-0.70;99.90
17381;DHT22;8808;52.478;13.378;2022-12-10T04:37:03;-0.70;99.90
17381;DHT22;8808;52.478;13.378;2022-12-10T04:39:30;-0.80;99.90
17381;DHT22;8808;52.478;13.378;2022-12-10T04:41:58;-0.80;99.90
17381;DHT22;8808;52.478;13.378;2022-12-10T04:44:25;-0.80;99.90
17381;DHT22;8808;52.478;13.378;2022-12-10T04:46:53;-0.80;99.90
17381;DHT22;8808;52.478;13.378;2022-12-10T04:49:20;-0.80;99.90
17381;DHT22;8808;52.478;13.378;2022-12-10T04:51:46;-0.80;99.90
17381;DHT22;8808;52.478;13.378;2022-12-10T04:54:15;-0.70;99.90
17381;DHT22;8808;52.478;13.378;2022-12-10T04:56:43;-0.60;99.90
17381;DHT22;8808;52.478;13.378;2022-12-10T04:59:10;-0.70;99.90
17381;DHT22;8808;52.478;13.378;2022-12-10T05:01:37;-0.60;99.90
17381;DHT22;8808;52.478;13.378;2022-12-10T05:04:06;-0.60;99.90
17381;DHT22;8808;52.478;13.378;2022-12-10T05:06:34;-0.50;99.90
17381;DHT22;8808;52.478;13.378;2022-12-10T05:09:01;-0.50;99.90
17381;DHT22;8808;52.478;13.378;2022-12-10T05:11:31;-0.50;99.90
17381;DHT22;8808;52.478;13.378;2022-12-10T05:13:59;-0.60;99.90
17381;DHT22;8808;52.478;13.378;2022-12-10T05:16:28;-0.50;99.90
17381;DHT22;8808;52.478;13.378;2022-12-10T05:18:55;-0.50;99.90
17381;DHT22;8808;52.478;13.378;2022-12-10T05:21:25;-0.50;99.90
17381;DHT22;8808;52.478;13.378;2022-12-10T05:24:12;-0.40;99.90
17381;DHT22;8808;52.478;13.378;2022-12-10T05:26:40;-0.30;99.90
17381;DHT22;8808;52.478;13.378;2022-12-10T05:29:07;-0.40;99.90
17381;DHT22;8808;52.478;13.378;2022-12-10T05:31:35;-0.40;99.90
17381;DHT22;8808;52.478;13.378;2022-12-10T05:34:02;-0.30;99.90
17381;DHT22;8808;52.478;13.378;2022-12-10T05:36:31;-0.30;99.90
17381;DHT22;8808;52.478;13.378;2022-12-10T05:38:59;-0.40;99.90
17381;DHT22;8808;52.478;13.378;2022-12-10T05:41:27;-0.40;99.90
17381;DHT22;8808;52.478;13.378;2022-12-10T05:43:57;-0.40;99.90
17381;DHT22;8808;52.478;13.378;2022-12-10T05:46:27;-0.40;99.90
17381;DHT22;8808;52.478;13.378;2022-12-10T05:48:55;-0.40;99.90
17381;DHT22;8808;52.478;13.378;2022-12-10T05:51:24;-0.30;99.90
17381;DHT22;8808;52.478;13.378;2022-12-10T05:53:52;-0.30;99.90
17381;DHT22;8808;52.478;13.378;2022-12-10T05:56:21;-0.30;99.90
17381;DHT22;8808;52.478;13.378;2022-12-10T05:58:50;-0.30;99.90
17381;DHT22;8808;52.478;13.378;2022-12-10T06:01:21;-0.40;99.90
17381;DHT22;8808;52.478;13.378;2022-12-10T06:03:48;-0.40;99.90
17381;DHT22;8808;52.478;13.378;2022-12-10T06:06:20;-0.20;99.90
17381;DHT22;8808;52.478;13.378;2022-12-10T06:08:48;-0.10;99.90
17381;DHT22;8808;52.478;13.378;2022-12-10T06:11:15;-0.10;99.90
17381;DHT22;8808;52.478;13.378;2022-12-10T06:13:42;-0.20;99.90
17381;DHT22;8808;52.478;13.378;2022-12-10T06:16:12;-0.10;99.90
17381;DHT22;8808;52.478;13.378;2022-12-10T06:18:42;-0.20;99.90
17381;DHT22;8808;52.478;13.378;2022-12-10T06:21:11;-0.20;99.90
17381;DHT22;8808;52.478;13.378;2022-12-10T06:23:38;-0.20;99.90
17381;DHT22;8808;52.478;13.378;2022-12-10T06:26:06;-0.10;99.90
17381;DHT22;8808;52.478;13.378;2022-12-10T06:28:34;-0.10;99.90
17381;DHT22;8808;52.478;13.378;2022-12-10T06:31:01;0.00;99.90
17381;DHT22;8808;52.478;13.378;2022-12-10T06:33:28;0.00;99.90
17381;DHT22;8808;52.478;13.378;2022-12-10T06:35:57;0.00;99.90
17381;DHT22;8808;52.478;13.378;2022-12-10T06:38:24;0.00;99.90
17381;DHT22;8808;52.478;13.378;2022-12-10T06:40:51;0.00;99.90
17381;DHT22;8808;52.478;13.378;2022-12-10T06:43:18;0.00;99.90
17381;DHT22;8808;52.478;13.378;2022-12-10T06:45:45;0.00;99.90
17381;DHT22;8808;52.478;13.378;2022-12-10T06:48:12;0.00;99.90
17381;DHT22;8808;52.478;13.378;2022-12-10T06:50:39;-0.10;99.90
17381;DHT22;8808;52.478;13.378;2022-12-10T06:53:08;-0.10;99.90
17381;DHT22;8808;52.478;13.378;2022-12-10T06:55:36;0.00;99.90
17381;DHT22;8808;52.478;13.378;2022-12-10T06:58:04;0.00;99.90
17381;DHT22;8808;52.478;13.378;2022-12-10T07:00:31;0.00;99.90
17381;DHT22;8808;52.478;13.378;2022-12-10T07:02:58;0.10;99.90
17381;DHT22;8808;52.478;13.378;2022-12-10T07:05:25;0.10;99.90
17381;DHT22;8808;52.478;13.378;2022-12-10T07:07:52;0.00;99.90
17381;DHT22;8808;52.478;13.378;2022-12-10T07:10:20;0.10;99.90
17381;DHT22;8808;52.478;13.378;2022-12-10T07:12:47;0.10;99.90
17381;DHT22;8808;52.478;13.378;2022-12-10T07:15:14;0.10;99.90
17381;DHT22;8808;52.478;13.378;2022-12-10T07:17:41;0.10;99.90
17381;DHT22;8808;52.478;13.378;2022-12-10T07:20:09;0.20;99.90
17381;DHT22;8808;52.478;13.378;2022-12-10T07:22:37;0.10;99.90
17381;DHT22;8808;52.478;13.378;2022-12-10T07:25:04;0.10;99.90
17381;DHT22;8808;52.478;13.378;2022-12-10T07:27:33;0.10;99.90
17381;DHT22;8808;52.478;13.378;2022-12-10T07:30:00;0.10;99.90
17381;DHT22;8808;52.478;13.378;2022-12-10T07:32:27;0.20;99.90
17381;DHT22;8808;52.478;13.378;2022-12-10T07:34:54;0.30;99.90
17381;DHT22;8808;52.478;13.378;2022-12-10T07:37:21;0.20;99.90
17381;DHT22;8808;52.478;13.378;2022-12-10T07:39:48;0.20;99.90
17381;DHT22;8808;52.478;13.378;2022-12-10T07:42:15;0.10;99.90
17381;DHT22;8808;52.478;13.378;2022-12-10T07:44:43;0.20;99.90
17381;DHT22;8808;52.478;13.378;2022-12-10T07:47:10;0.00;99.90
17381;DHT22;8808;52.478;13.378;2022-12-10T07:49:37;0.10;99.90
17381;DHT22;8808;52.478;13.378;2022-12-10T07:52:04;0.20;99.90
17381;DHT22;8808;52.478;13.378;2022-12-10T07:54:31;0.20;99.90
17381;DHT22;8808;52.478;13.378;2022-12-10T07:56:58;0.10;99.90
17381;DHT22;8808;52.478;13.378;2022-12-10T07:59:25;0.10;99.90
17381;DHT22;8808;52.478;13.378;2022-12-10T08:01:53;0.10;99.90
17381;DHT22;8808;52.478;13.378;2022-12-10T08:04:20;0.20;99.90
17381;DHT22;8808;52.478;13.378;2022-12-10T08:06:47;0.20;99.90
17381;DHT22;8808;52.478;13.378;2022-12-10T08:09:14;0.10;99.90
17381;DHT22;8808;52.478;13.378;2022-12-10T08:11:41;0.20;99.90
17381;DHT22;8808;52.478;13.378;2022-12-10T08:14:08;0.30;99.90
17381;DHT22;8808;52.478;13.378;2022-12-10T08:16:35;0.30;99.90
17381;DHT22;8808;52.478;13.378;2022-12-10T08:19:03;0.20;99.90
17381;DHT22;8808;52.478;13.378;2022-12-10T08:21:32;0.30;99.90
17381;DHT22;8808;52.478;13.378;2022-12-10T08:24:00;0.30;99.90
17381;DHT22;8808;52.478;13.378;2022-12-10T08:26:29;0.10;99.90
17381;DHT22;8808;52.478;13.378;2022-12-10T08:28:56;0.10;99.90
17381;DHT22;8808;52.478;13.378;2022-12-10T08:31:24;0.30;99.90
17381;DHT22;8808;52.478;13.378;2022-12-10T08:33:52;0.40;99.90
17381;DHT22;8808;52.478;13.378;2022-12-10T08:36:21;0.30;99.90
17381;DHT22;8808;52.478;13.378;2022-12-10T08:38:48;0.30;99.90
17381;DHT22;8808;52.478;13.378;2022-12-10T08:41:16;0.20;99.90
17381;DHT22;8808;52.478;13.378;2022-12-10T08:43:44;0.40;99.90
17381;DHT22;8808;52.478;13.378;2022-12-10T08:46:12;0.30;99.90
17381;DHT22;8808;52.478;13.378;2022-12-10T08:48:41;0.20;99.90
17381;DHT22;8808;52.478;13.378;2022-12-10T08:51:08;0.30;99.90
17381;DHT22;8808;52.478;13.378;2022-12-10T08:53:37;0.40;99.90
17381;DHT22;8808;52.478;13.378;2022-12-10T08:56:04;0.30;99.90
17381;DHT22;8808;52.478;13.378;2022-12-10T08:58:31;0.40;99.90
17381;DHT22;8808;52.478;13.378;2022-12-10T09:00:58;0.50;99.90
17381;DHT22;8808;52.478;13.378;2022-12-10T09:03:27;0.50;99.90
17381;DHT22;8808;52.478;13.378;2022-12-10T09:05:54;0.40;99.90
17381;DHT22;8808;52.478;13.378;2022-12-10T09:08:21;0.30;99.90
17381;DHT22;8808;52.478;13.378;2022-12-10T09:10:49;0.40;99.90
17381;DHT22;8808;52.478;13.378;2022-12-10T09:13:16;0.50;99.90
17381;DHT22;8808;52.478;13.378;2022-12-10T09:15:49;0.40;99.90
17381;DHT22;8808;52.478;13.378;2022-12-10T09:18:16;0.40;99.90
17381;DHT22;8808;52.478;13.378;2022-12-10T09:20:43;0.30;99.90
17381;DHT22;8808;52.478;13.378;2022-12-10T09:23:10;0.40;99.90
17381;DHT22;8808;52.478;13.378;2022-12-10T09:25:37;0.30;99.90
17381;DHT22;8808;52.478;13.378;2022-12-10T09:28:05;0.50;99.90
17381;DHT22;8808;52.478;13.378;2022-12-10T09:30:32;0.50;99.90
17381;DHT22;8808;52.478;13.378;2022-12-10T09:32:59;0.50;99.90
17381;DHT22;8808;52.478;13.378;2022-12-10T09:35:26;0.40;99.90
17381;DHT22;8808;52.478;13.378;2022-12-10T09:37:54;0.30;99.90
17381;DHT22;8808;52.478;13.378;2022-12-10T09:40:29;0.40;99.90
17381;DHT22;8808;52.478;13.378;2022-12-10T09:43:02;0.50;99.90
17381;DHT22;8808;52.478;13.378;2022-12-10T09:45:38;0.70;99.90
17381;DHT22;8808;52.478;13.378;2022-12-10T09:48:15;0.50;99.90
17381;DHT22;8808;52.478;13.378;2022-12-10T09:50:52;0.50;99.90
17381;DHT22;8808;52.478;13.378;2022-12-10T09:53:23;0.50;99.90
17381;DHT22;8808;52.478;13.378;2022-12-10T09:55:51;0.60;99.90
17381;DHT22;8808;52.478;13.378;2022-12-10T09:58:19;0.60;99.90
17381;DHT22;8808;52.478;13.378;2022-12-10T10:00:51;0.60;99.90
17381;DHT22;8808;52.478;13.378;2022-12-10T10:03:18;0.60;99.90
17381;DHT22;8808;52.478;13.378;2022-12-10T10:05:47;0.70;99.90
17381;DHT22;8808;52.478;13.378;2022-12-10T10:08:23;0.70;99.90
17381;DHT22;8808;52.478;13.378;2022-12-10T10:10:52;0.70;99.90
17381;DHT22;8808;52.478;13.378;2022-12-10T10:13:29;0.70;99.90
17381;DHT22;8808;52.478;13.378;2022-12-10T10:16:11;0.70;99.90
17381;DHT22;8808;52.478;13.378;2022-12-10T10:18:41;0.70;99.90
17381;DHT22;8808;52.478;13.378;2022-12-10T10:21:17;0.80;99.90
17381;DHT22;8808;52.478;13.378;2022-12-10T10:23:47;0.80;99.90
17381;DHT22;8808;52.478;13.378;2022-12-10T10:26:14;0.80;99.90
17381;DHT22;8808;52.478;13.378;2022-12-10T10:28:41;0.90;99.90
17381;DHT22;8808;52.478;13.378;2022-12-10T10:31:19;0.80;99.90
17381;DHT22;8808;52.478;13.378;2022-12-10T10:33:52;0.90;99.90
17381;DHT22;8808;52.478;13.378;2022-12-10T10:36:27;1.00;99.90
17381;DHT22;8808;52.478;13.378;2022-12-10T10:38:54;1.00;99.90
17381;DHT22;8808;52.478;13.378;2022-12-10T10:41:23;0.90;99.90
17381;DHT22;8808;52.478;13.378;2022-12-10T10:43:59;1.00;99.90
17381;DHT22;8808;52.478;13.378;2022-12-10T10:46:28;0.90;99.90
17381;DHT22;8808;52.478;13.378;2022-12-10T10:49:21;0.90;99.90
17381;DHT22;8808;52.478;13.378;2022-12-10T10:51:49;0.80;99.90
17381;DHT22;8808;52.478;13.378;2022-12-10T10:54:32;1.00;99.90
17381;DHT22;8808;52.478;13.378;2022-12-10T10:57:02;1.10;99.90
17381;DHT22;8808;52.478;13.378;2022-12-10T10:59:32;0.90;99.90
17381;DHT22;8808;52.478;13.378;2022-12-10T11:02:04;1.00;99.90
17381;DHT22;8808;52.478;13.378;2022-12-10T11:04:38;1.10;99.90
17381;DHT22;8808;52.478;13.378;2022-12-10T11:07:19;1.10;99.90
17381;DHT22;8808;52.478;13.378;2022-12-10T11:09:47;1.10;99.90
17381;DHT22;8808;52.478;13.378;2022-12-10T11:12:38;1.10;99.90
17381;DHT22;8808;52.478;13.378;2022-12-10T11:15:31;1.10;99.90
17381;DHT22;8808;52.478;13.378;2022-12-10T11:18:01;1.10;99.90
17381;DHT22;8808;52.478;13.378;2022-12-10T11:20:31;1.10;99.90
17381;DHT22;8808;52.478;13.378;2022-12-10T11:23:00;1.10;99.90
17381;DHT22;8808;52.478;13.378;2022-12-10T11:25:43;1.20;99.90
17381;DHT22;8808;52.478;13.378;2022-12-10T11:28:26;1.10;99.90
17381;DHT22;8808;52.478;13.378;2022-12-10T11:31:02;0.90;99.90
17381;DHT22;8808;52.478;13.378;2022-12-10T11:33:43;0.90;99.90
17381;DHT22;8808;52.478;13.378;2022-12-10T11:36:25;1.00;99.90
17381;DHT22;8808;52.478;13.378;2022-12-10T11:39:20;1.00;99.90
17381;DHT22;8808;52.478;13.378;2022-12-10T11:41:56;1.00;99.90
17381;DHT22;8808;52.478;13.378;2022-12-10T11:44:36;1.00;99.90
17381;DHT22;8808;52.478;13.378;2022-12-10T11:50:20;1.10;99.90
17381;DHT22;8808;52.478;13.378;2022-12-10T11:53:07;1.10;99.90
17381;DHT22;8808;52.478;13.378;2022-12-10T11:55:43;0.90;99.90
17381;DHT22;8808;52.478;13.378;2022-12-10T11:58:33;0.90;99.90
17381;DHT22;8808;52.478;13.378;2022-12-10T12:01:08;0.90;99.90
17381;DHT22;8808;52.478;13.378;2022-12-10T12:03:46;0.90;99.90
17381;DHT22;8808;52.478;13.378;2022-12-10T12:06:31;1.00;99.90
17381;DHT22;8808;52.478;13.378;2022-12-10T12:09:07;1.10;99.90
17381;DHT22;8808;52.478;13.378;2022-12-10T12:11:49;0.80;99.90
17381;DHT22;8808;52.478;13.378;2022-12-10T12:14:23;1.00;99.90
17381;DHT22;8808;52.478;13.378;2022-12-10T12:16:58;1.10;99.90
17381;DHT22;8808;52.478;13.378;2022-12-10T12:19:32;1.10;99.90
17381;DHT22;8808;52.478;13.378;2022-12-10T12:22:07;1.00;99.90
17381;DHT22;8808;52.478;13.378;2022-12-10T12:24:38;1.10;99.90
17381;DHT22;8808;52.478;13.378;2022-12-10T12:27:16;1.10;99.90
17381;DHT22;8808;52.478;13.378;2022-12-10T12:29:54;1.10;99.90
17381;DHT22;8808;52.478;13.378;2022-12-10T12:32:25;0.80;99.90
17381;DHT22;8808;52.478;13.378;2022-12-10T12:34:58;1.00;99.90
17381;DHT22;8808;52.478;13.378;2022-12-10T12:37:35;0.90;99.90
17381;DHT22;8808;52.478;13.378;2022-12-10T12:40:10;1.00;99.90
17381;DHT22;8808;52.478;13.378;2022-12-10T12:42:44;1.00;99.90
17381;DHT22;8808;52.478;13.378;2022-12-10T12:45:16;0.90;99.90
17381;DHT22;8808;52.478;13.378;2022-12-10T12:47:49;0.80;99.90
17381;DHT22;8808;52.478;13.378;2022-12-10T12:50:25;1.00;99.90
17381;DHT22;8808;52.478;13.378;2022-12-10T12:52:57;1.00;99.90
17381;DHT22;8808;52.478;13.378;2022-12-10T12:55:30;1.10;99.90
17381;DHT22;8808;52.478;13.378;2022-12-10T12:58:10;1.00;99.90
17381;DHT22;8808;52.478;13.378;2022-12-10T13:00:41;0.90;99.90
17381;DHT22;8808;52.478;13.378;2022-12-10T13:03:23;0.90;99.90
17381;DHT22;8808;52.478;13.378;2022-12-10T13:05:52;1.00;99.90
17381;DHT22;8808;52.478;13.378;2022-12-10T13:08:30;1.00;99.90
17381;DHT22;8808;52.478;13.378;2022-12-10T13:11:00;1.10;99.90
17381;DHT22;8808;52.478;13.378;2022-12-10T13:13:33;1.10;99.90
17381;DHT22;8808;52.478;13.378;2022-12-10T13:16:35;1.20;99.90
17381;DHT22;8808;52.478;13.378;2022-12-10T13:19:23;1.00;99.90
17381;DHT22;8808;52.478;13.378;2022-12-10T13:22:05;1.00;99.90
17381;DHT22;8808;52.478;13.378;2022-12-10T13:25:11;0.90;99.90
17381;DHT22;8808;52.478;13.378;2022-12-10T13:27:39;1.00;99.90
17381;DHT22;8808;52.478;13.378;2022-12-10T13:30:34;1.00;99.90
17381;DHT22;8808;52.478;13.378;2022-12-10T13:33:12;1.00;99.90
17381;DHT22;8808;52.478;13.378;2022-12-10T13:35:50;1.00;99.90
17381;DHT22;8808;52.478;13.378;2022-12-10T13:38:20;1.00;99.90
17381;DHT22;8808;52.478;13.378;2022-12-10T13:41:02;1.00;99.90
17381;DHT22;8808;52.478;13.378;2022-12-10T13:43:56;1.00;99.90
17381;DHT22;8808;52.478;13.378;2022-12-10T13:46:52;1.10;99.90
17381;DHT22;8808;52.478;13.378;2022-12-10T13:49:22;1.10;99.90
17381;DHT22;8808;52.478;13.378;2022-12-10T13:51:55;1.00;99.90
17381;DHT22;8808;52.478;13.378;2022-12-10T13:54:58;1.00;99.90
17381;DHT22;8808;52.478;13.378;2022-12-10T13:57:58;1.10;99.90
17381;DHT22;8808;52.478;13.378;2022-12-10T14:00:33;1.10;99.90
17381;DHT22;8808;52.478;13.378;2022-12-10T14:03:20;1.00;99.90
17381;DHT22;8808;52.478;13.378;2022-12-10T14:06:02;0.80;99.90
17381;DHT22;8808;52.478;13.378;2022-12-10T14:08:32;0.90;99.90
17381;DHT22;8808;52.478;13.378;2022-12-10T14:11:00;1.00;99.90
17381;DHT22;8808;52.478;13.378;2022-12-10T14:13:35;0.90;99.90
17381;DHT22;8808;52.478;13.378;2022-12-10T14:16:05;1.00;99.90
17381;DHT22;8808;52.478;13.378;2022-12-10T14:18:33;0.90;99.90
17381;DHT22;8808;52.478;13.378;2022-12-10T14:21:06;0.90;99.90
17381;DHT22;8808;52.478;13.378;2022-12-10T14:23:34;0.90;99.90
17381;DHT22;8808;52.478;13.378;2022-12-10T14:26:05;0.90;99.90
17381;DHT22;8808;52.478;13.378;2022-12-10T14:28:38;0.90;99.90
17381;DHT22;8808;52.478;13.378;2022-12-10T14:31:12;0.80;99.90
17381;DHT22;8808;52.478;13.378;2022-12-10T14:33:40;0.90;99.90
17381;DHT22;8808;52.478;13.378;2022-12-10T14:36:16;0.90;99.90
17381;DHT22;8808;52.478;13.378;2022-12-10T14:38:45;0.90;99.90
17381;DHT22;8808;52.478;13.378;2022-12-10T14:41:16;0.90;99.90
17381;DHT22;8808;52.478;13.378;2022-12-10T14:43:45;0.80;99.90
17381;DHT22;8808;52.478;13.378;2022-12-10T14:46:14;0.90;99.90
17381;DHT22;8808;52.478;13.378;2022-12-10T14:48:42;0.90;99.90
17381;DHT22;8808;52.478;13.378;2022-12-10T14:51:13;0.90;99.90
17381;DHT22;8808;52.478;13.378;2022-12-10T14:53:41;0.90;99.90
17381;DHT22;8808;52.478;13.378;2022-12-10T14:56:14;0.80;99.90
17381;DHT22;8808;52.478;13.378;2022-12-10T14:58:47;0.80;99.90
17381;DHT22;8808;52.478;13.378;2022-12-10T15:01:19;0.90;99.90
17381;DHT22;8808;52.478;13.378;2022-12-10T15:03:49;0.80;99.90
17381;DHT22;8808;52.478;13.378;2022-12-10T15:06:18;0.70;99.90
17381;DHT22;8808;52.478;13.378;2022-12-10T15:08:46;0.80;99.90
17381;DHT22;8808;52.478;13.378;2022-12-10T15:11:16;0.80;99.90
17381;DHT22;8808;52.478;13.378;2022-12-10T15:13:47;0.70;99.90
17381;DHT22;8808;52.478;13.378;2022-12-10T15:16:17;0.60;99.90
17381;DHT22;8808;52.478;13.378;2022-12-10T15:18:44;0.80;99.90
17381;DHT22;8808;52.478;13.378;2022-12-10T15:21:14;0.80;99.90
17381;DHT22;8808;52.478;13.378;2022-12-10T15:23:43;0.80;99.90
17381;DHT22;8808;52.478;13.378;2022-12-10T15:26:17;0.70;99.90
17381;DHT22;8808;52.478;13.378;2022-12-10T15:28:47;0.90;99.90
17381;DHT22;8808;52.478;13.378;2022-12-10T15:31:21;0.90;99.90
17381;DHT22;8808;52.478;13.378;2022-12-10T15:33:50;0.70;99.90
17381;DHT22;8808;52.478;13.378;2022-12-10T15:36:30;0.70;99.90
17381;DHT22;8808;52.478;13.378;2022-12-10T15:39:02;0.80;99.90
17381;DHT22;8808;52.478;13.378;2022-12-10T15:41:41;0.80;99.90
17381;DHT22;8808;52.478;13.378;2022-12-10T15:44:24;0.90;99.90
17381;DHT22;8808;52.478;13.378;2022-12-10T15:46:59;0.80;99.90
17381;DHT22;8808;52.478;13.378;2022-12-10T15:49:26;0.90;99.90
17381;DHT22;8808;52.478;13.378;2022-12-10T15:51:53;0.90;99.90
17381;DHT22;8808;52.478;13.378;2022-12-10T15:54:22;0.80;99.90
17381;DHT22;8808;52.478;13.378;2022-12-10T15:56:49;0.80;99.90
17381;DHT22;8808;52.478;13.378;2022-12-10T15:59:18;0.80;99.90
17381;DHT22;8808;52.478;13.378;2022-12-10T16:01:45;0.90;99.90
17381;DHT22;8808;52.478;13.378;2022-12-10T16:04:12;0.90;99.90
17381;DHT22;8808;52.478;13.378;2022-12-10T16:06:40;0.80;99.90
17381;DHT22;8808;52.478;13.378;2022-12-10T16:09:08;0.80;99.90
17381;DHT22;8808;52.478;13.378;2022-12-10T16:11:35;0.90;99.90